Terminal Aerodrome Forecast
Issued by NWS Paducah, KY

Home | Current Version | Previous Version | Text Only | Print | Product List | Glossary On
Versions: 1 2 3 4 5 6 7 8 9 10 11 12 13 14 15 16 17 18 19 20 21 22 23 24
000
FTUS43 KPAH 271520 AAB
TAFPAH
TAF AMD
KPAH 271520Z 2715/2812 28007KT P6SM VCSH SCT015 BKN050
     FM271700 23008KT P6SM SCT030 BKN050
      TEMPO 2720/2724 5SM -TSRA BR BKN050CB
     FM280100 20002KT P6SM SCT250=

USA.gov is the U.S. government's official web portal to all federal, state and local government web resources and services.